sensor_id;sensor_type;location;lat;lon;timestamp;pressure;altitude;pressure_sealevel;temperature;humidity
29315;BME280;16320;53.954;9.506;2022-11-15T00:00:55;100924.00;;;5.75;100.00
29315;BME280;16320;53.954;9.506;2022-11-15T00:04:00;100928.34;;;5.76;100.00
29315;BME280;16320;53.954;9.506;2022-11-15T00:07:04;100923.16;;;5.74;100.00
29315;BME280;16320;53.954;9.506;2022-11-15T00:10:09;100933.50;;;5.77;100.00
29315;BME280;16320;53.954;9.506;2022-11-15T00:13:13;100929.91;;;5.81;100.00
29315;BME280;16320;53.954;9.506;2022-11-15T00:16:17;100922.94;;;5.82;100.00
29315;BME280;16320;53.954;9.506;2022-11-15T00:19:22;100925.69;;;5.77;100.00
29315;BME280;16320;53.954;9.506;2022-11-15T00:22:32;100919.72;;;5.74;100.00
29315;BME280;16320;53.954;9.506;2022-11-15T00:25:37;100917.03;;;5.77;100.00
29315;BME280;16320;53.954;9.506;2022-11-15T00:28:42;100921.31;;;5.78;100.00
29315;BME280;16320;53.954;9.506;2022-11-15T00:31:46;100920.59;;;5.73;100.00
29315;BME280;16320;53.954;9.506;2022-11-15T00:34:50;100917.09;;;5.74;100.00
29315;BME280;16320;53.954;9.506;2022-11-15T00:37:55;100914.50;;;5.74;100.00
29315;BME280;16320;53.954;9.506;2022-11-15T00:41:00;100917.94;;;5.74;100.00
29315;BME280;16320;53.954;9.506;2022-11-15T00:44:12;100918.78;;;5.75;100.00
29315;BME280;16320;53.954;9.506;2022-11-15T00:47:16;100931.63;;;5.82;100.00
29315;BME280;16320;53.954;9.506;2022-11-15T00:50:20;100923.66;;;5.87;100.00
29315;BME280;16320;53.954;9.506;2022-11-15T00:53:24;100916.47;;;5.95;100.00
29315;BME280;16320;53.954;9.506;2022-11-15T00:56:29;100911.84;;;6.07;100.00
29315;BME280;16320;53.954;9.506;2022-11-15T00:59:33;100923.06;;;6.09;100.00
29315;BME280;16320;53.954;9.506;2022-11-15T01:02:37;100911.75;;;6.10;100.00
29315;BME280;16320;53.954;9.506;2022-11-15T01:05:42;100919.56;;;6.10;100.00
29315;BME280;16320;53.954;9.506;2022-11-15T01:08:46;100921.16;;;6.14;100.00
29315;BME280;16320;53.954;9.506;2022-11-15T01:11:52;100915.84;;;6.17;100.00
29315;BME280;16320;53.954;9.506;2022-11-15T01:14:56;100901.84;;;6.21;100.00
29315;BME280;16320;53.954;9.506;2022-11-15T01:18:00;100897.59;;;6.17;100.00
29315;BME280;16320;53.954;9.506;2022-11-15T01:21:10;100904.41;;;6.22;100.00
29315;BME280;16320;53.954;9.506;2022-11-15T01:24:16;100902.94;;;6.12;100.00
29315;BME280;16320;53.954;9.506;2022-11-15T01:27:20;100888.19;;;6.13;100.00
29315;BME280;16320;53.954;9.506;2022-11-15T01:30:25;100872.66;;;6.08;100.00
29315;BME280;16320;53.954;9.506;2022-11-15T01:33:30;100873.38;;;6.13;100.00
29315;BME280;16320;53.954;9.506;2022-11-15T01:36:35;100877.53;;;6.19;100.00
29315;BME280;16320;53.954;9.506;2022-11-15T01:39:39;100884.38;;;6.23;100.00
29315;BME280;16320;53.954;9.506;2022-11-15T01:42:44;100875.66;;;6.24;100.00
29315;BME280;16320;53.954;9.506;2022-11-15T01:49:16;100886.63;;;6.35;100.00
29315;BME280;16320;53.954;9.506;2022-11-15T01:52:25;100869.00;;;6.42;100.00
29315;BME280;16320;53.954;9.506;2022-11-15T01:55:30;100875.06;;;6.43;100.00
29315;BME280;16320;53.954;9.506;2022-11-15T01:58:36;100865.38;;;6.46;100.00
29315;BME280;16320;53.954;9.506;2022-11-15T02:01:41;100873.25;;;6.45;100.00
29315;BME280;16320;53.954;9.506;2022-11-15T02:04:47;100867.34;;;6.39;100.00
29315;BME280;16320;53.954;9.506;2022-11-15T02:07:51;100854.44;;;6.35;100.00
29315;BME280;16320;53.954;9.506;2022-11-15T02:10:56;100857.91;;;6.35;100.00
29315;BME280;16320;53.954;9.506;2022-11-15T02:14:01;100864.91;;;6.33;100.00
29315;BME280;16320;53.954;9.506;2022-11-15T02:20:49;100860.00;;;6.24;100.00
29315;BME280;16320;53.954;9.506;2022-11-15T02:31:04;100867.22;;;6.16;100.00
29315;BME280;16320;53.954;9.506;2022-11-15T02:37:53;100856.84;;;6.14;100.00
29315;BME280;16320;53.954;9.506;2022-11-15T02:41:11;100847.19;;;6.16;100.00
29315;BME280;16320;53.954;9.506;2022-11-15T02:47:31;100837.63;;;6.17;100.00
29315;BME280;16320;53.954;9.506;2022-11-15T02:50:37;100840.31;;;6.14;100.00
29315;BME280;16320;53.954;9.506;2022-11-15T02:53:41;100836.88;;;6.13;100.00
29315;BME280;16320;53.954;9.506;2022-11-15T02:56:46;100837.72;;;6.14;100.00
29315;BME280;16320;53.954;9.506;2022-11-15T03:00:10;100823.88;;;6.12;100.00
29315;BME280;16320;53.954;9.506;2022-11-15T03:07:25;100815.44;;;6.03;100.00
29315;BME280;16320;53.954;9.506;2022-11-15T03:10:32;100803.56;;;5.93;100.00
29315;BME280;16320;53.954;9.506;2022-11-15T03:17:36;100818.69;;;5.82;100.00
29315;BME280;16320;53.954;9.506;2022-11-15T03:20:43;100799.00;;;5.72;100.00
29315;BME280;16320;53.954;9.506;2022-11-15T03:23:48;100803.41;;;5.69;100.00
29315;BME280;16320;53.954;9.506;2022-11-15T03:26:55;100806.94;;;5.67;100.00
29315;BME280;16320;53.954;9.506;2022-11-15T03:30:05;100805.16;;;5.69;100.00
29315;BME280;16320;53.954;9.506;2022-11-15T03:33:11;100796.44;;;5.70;100.00
29315;BME280;16320;53.954;9.506;2022-11-15T03:36:16;100807.56;;;5.77;100.00
29315;BME280;16320;53.954;9.506;2022-11-15T03:39:22;100801.28;;;5.82;100.00
29315;BME280;16320;53.954;9.506;2022-11-15T03:42:42;100807.38;;;5.81;100.00
29315;BME280;16320;53.954;9.506;2022-11-15T03:49:22;100805.03;;;5.74;100.00
29315;BME280;16320;53.954;9.506;2022-11-15T03:52:33;100804.50;;;5.62;100.00
29315;BME280;16320;53.954;9.506;2022-11-15T03:55:37;100803.13;;;5.49;100.00
29315;BME280;16320;53.954;9.506;2022-11-15T03:58:42;100799.00;;;5.42;100.00
29315;BME280;16320;53.954;9.506;2022-11-15T04:01:46;100818.06;;;5.44;100.00
29315;BME280;16320;53.954;9.506;2022-11-15T04:04:51;100823.00;;;5.53;100.00
29315;BME280;16320;53.954;9.506;2022-11-15T04:07:55;100815.09;;;5.56;100.00
29315;BME280;16320;53.954;9.506;2022-11-15T04:11:00;100832.25;;;5.63;100.00
29315;BME280;16320;53.954;9.506;2022-11-15T04:14:05;100832.59;;;5.81;100.00
29315;BME280;16320;53.954;9.506;2022-11-15T04:17:10;100831.31;;;5.94;100.00
29315;BME280;16320;53.954;9.506;2022-11-15T04:20:32;100837.09;;;6.05;100.00
29315;BME280;16320;53.954;9.506;2022-11-15T04:23:55;100844.75;;;6.12;100.00
29315;BME280;16320;53.954;9.506;2022-11-15T04:27:17;100846.50;;;6.11;100.00
29315;BME280;16320;53.954;9.506;2022-11-15T04:30:21;100859.13;;;6.23;100.00
29315;BME280;16320;53.954;9.506;2022-11-15T04:33:26;100854.78;;;6.24;100.00
29315;BME280;16320;53.954;9.506;2022-11-15T04:36:30;100859.59;;;6.36;100.00
29315;BME280;16320;53.954;9.506;2022-11-15T04:39:53;100854.16;;;6.44;100.00
29315;BME280;16320;53.954;9.506;2022-11-15T04:42:57;100861.69;;;6.53;100.00
29315;BME280;16320;53.954;9.506;2022-11-15T04:46:07;100854.50;;;6.60;100.00
29315;BME280;16320;53.954;9.506;2022-11-15T04:49:11;100856.91;;;6.66;100.00
29315;BME280;16320;53.954;9.506;2022-11-15T04:52:16;100867.03;;;6.75;100.00
29315;BME280;16320;53.954;9.506;2022-11-15T04:55:21;100869.50;;;6.80;100.00
29315;BME280;16320;53.954;9.506;2022-11-15T04:58:25;100856.50;;;6.78;100.00
29315;BME280;16320;53.954;9.506;2022-11-15T05:01:29;100860.72;;;6.83;100.00
29315;BME280;16320;53.954;9.506;2022-11-15T05:04:34;100849.25;;;6.87;100.00
29315;BME280;16320;53.954;9.506;2022-11-15T05:07:39;100857.88;;;6.89;100.00
29315;BME280;16320;53.954;9.506;2022-11-15T05:10:44;100867.31;;;6.93;100.00
29315;BME280;16320;53.954;9.506;2022-11-15T05:13:49;100855.00;;;6.96;100.00
29315;BME280;16320;53.954;9.506;2022-11-15T05:16:54;100852.28;;;7.00;100.00
29315;BME280;16320;53.954;9.506;2022-11-15T05:19:58;100846.16;;;7.01;100.00
29315;BME280;16320;53.954;9.506;2022-11-15T05:23:03;100846.03;;;7.05;100.00
29315;BME280;16320;53.954;9.506;2022-11-15T05:26:08;100847.75;;;7.05;100.00
29315;BME280;16320;53.954;9.506;2022-11-15T05:29:13;100844.16;;;7.09;100.00
29315;BME280;16320;53.954;9.506;2022-11-15T05:32:18;100840.50;;;7.13;100.00
29315;BME280;16320;53.954;9.506;2022-11-15T05:35:42;100842.22;;;7.14;100.00
29315;BME280;16320;53.954;9.506;2022-11-15T05:38:50;100835.00;;;7.21;100.00
29315;BME280;16320;53.954;9.506;2022-11-15T05:42:05;100834.06;;;7.23;100.00
29315;BME280;16320;53.954;9.506;2022-11-15T05:45:11;100823.50;;;7.26;100.00
29315;BME280;16320;53.954;9.506;2022-11-15T05:48:16;100831.19;;;7.29;100.00
29315;BME280;16320;53.954;9.506;2022-11-15T05:51:21;100830.53;;;7.24;100.00
29315;BME280;16320;53.954;9.506;2022-11-15T05:54:26;100828.06;;;7.20;100.00
29315;BME280;16320;53.954;9.506;2022-11-15T05:57:31;100821.31;;;7.14;100.00
29315;BME280;16320;53.954;9.506;2022-11-15T06:00:35;100818.75;;;7.12;100.00
29315;BME280;16320;53.954;9.506;2022-11-15T06:03:39;100819.53;;;7.14;100.00
29315;BME280;16320;53.954;9.506;2022-11-15T06:06:44;100829.22;;;7.12;100.00
29315;BME280;16320;53.954;9.506;2022-11-15T06:09:48;100829.16;;;7.14;100.00
29315;BME280;16320;53.954;9.506;2022-11-15T06:13:02;100819.50;;;7.16;100.00
29315;BME280;16320;53.954;9.506;2022-11-15T06:16:07;100811.72;;;7.14;100.00
29315;BME280;16320;53.954;9.506;2022-11-15T06:19:12;100812.75;;;7.10;100.00
29315;BME280;16320;53.954;9.506;2022-11-15T06:22:16;100808.53;;;7.06;100.00
29315;BME280;16320;53.954;9.506;2022-11-15T06:25:20;100824.19;;;7.06;100.00
29315;BME280;16320;53.954;9.506;2022-11-15T06:28:27;100817.41;;;7.02;100.00
29315;BME280;16320;53.954;9.506;2022-11-15T06:31:34;100819.19;;;7.00;100.00
29315;BME280;16320;53.954;9.506;2022-11-15T06:34:38;100821.69;;;7.03;100.00
29315;BME280;16320;53.954;9.506;2022-11-15T06:37:43;100827.84;;;7.02;100.00
29315;BME280;16320;53.954;9.506;2022-11-15T06:40:50;100825.19;;;7.04;100.00
29315;BME280;16320;53.954;9.506;2022-11-15T06:43:55;100827.84;;;7.02;100.00
29315;BME280;16320;53.954;9.506;2022-11-15T06:47:00;100833.06;;;7.02;100.00
29315;BME280;16320;53.954;9.506;2022-11-15T06:50:04;100840.78;;;7.05;100.00
29315;BME280;16320;53.954;9.506;2022-11-15T06:53:09;100844.34;;;7.03;100.00
29315;BME280;16320;53.954;9.506;2022-11-15T06:56:13;100845.81;;;7.10;100.00
29315;BME280;16320;53.954;9.506;2022-11-15T06:59:18;100848.38;;;7.11;100.00
29315;BME280;16320;53.954;9.506;2022-11-15T07:02:22;100841.31;;;7.15;100.00
29315;BME280;16320;53.954;9.506;2022-11-15T07:05:27;100843.88;;;7.17;100.00
29315;BME280;16320;53.954;9.506;2022-11-15T07:08:31;100847.19;;;7.22;100.00
29315;BME280;16320;53.954;9.506;2022-11-15T07:11:36;100841.94;;;7.22;100.00
29315;BME280;16320;53.954;9.506;2022-11-15T07:14:40;100852.19;;;7.28;100.00
29315;BME280;16320;53.954;9.506;2022-11-15T07:17:45;100851.38;;;7.26;100.00
29315;BME280;16320;53.954;9.506;2022-11-15T07:20:49;100848.66;;;7.29;100.00
29315;BME280;16320;53.954;9.506;2022-11-15T07:23:54;100858.78;;;7.38;100.00
29315;BME280;16320;53.954;9.506;2022-11-15T07:26:58;100849.91;;;7.42;100.00
29315;BME280;16320;53.954;9.506;2022-11-15T07:30:03;100851.56;;;7.45;100.00
29315;BME280;16320;53.954;9.506;2022-11-15T07:33:08;100857.53;;;7.48;100.00
29315;BME280;16320;53.954;9.506;2022-11-15T07:36:13;100854.75;;;7.53;100.00
29315;BME280;16320;53.954;9.506;2022-11-15T07:39:17;100856.22;;;7.60;100.00
29315;BME280;16320;53.954;9.506;2022-11-15T07:42:22;100855.16;;;7.66;100.00
29315;BME280;16320;53.954;9.506;2022-11-15T07:45:45;100857.88;;;7.63;100.00
29315;BME280;16320;53.954;9.506;2022-11-15T07:48:50;100862.88;;;7.69;100.00
29315;BME280;16320;53.954;9.506;2022-11-15T07:51:54;100866.44;;;7.66;100.00
29315;BME280;16320;53.954;9.506;2022-11-15T07:54:59;100874.00;;;7.74;100.00
29315;BME280;16320;53.954;9.506;2022-11-15T07:58:06;100868.00;;;7.72;100.00
29315;BME280;16320;53.954;9.506;2022-11-15T08:01:11;100866.84;;;7.79;100.00
29315;BME280;16320;53.954;9.506;2022-11-15T08:04:16;100869.44;;;7.79;100.00
29315;BME280;16320;53.954;9.506;2022-11-15T08:07:21;100869.50;;;7.78;100.00
29315;BME280;16320;53.954;9.506;2022-11-15T08:10:27;100864.22;;;7.79;100.00
29315;BME280;16320;53.954;9.506;2022-11-15T08:13:32;100861.72;;;7.76;100.00
29315;BME280;16320;53.954;9.506;2022-11-15T08:16:38;100869.44;;;7.79;100.00
29315;BME280;16320;53.954;9.506;2022-11-15T08:19:43;100864.56;;;7.70;100.00
29315;BME280;16320;53.954;9.506;2022-11-15T08:22:47;100864.28;;;7.78;100.00
29315;BME280;16320;53.954;9.506;2022-11-15T08:25:52;100871.97;;;7.82;100.00
29315;BME280;16320;53.954;9.506;2022-11-15T08:28:56;100862.22;;;7.86;100.00
29315;BME280;16320;53.954;9.506;2022-11-15T08:32:00;100862.22;;;7.86;100.00
29315;BME280;16320;53.954;9.506;2022-11-15T08:35:05;100854.31;;;7.87;100.00
29315;BME280;16320;53.954;9.506;2022-11-15T08:38:11;100855.88;;;7.93;100.00
29315;BME280;16320;53.954;9.506;2022-11-15T08:41:37;100858.09;;;8.02;100.00
29315;BME280;16320;53.954;9.506;2022-11-15T08:44:42;100862.50;;;8.02;100.00
29315;BME280;16320;53.954;9.506;2022-11-15T08:47:47;100867.38;;;8.11;100.00
29315;BME280;16320;53.954;9.506;2022-11-15T08:50:57;100868.78;;;8.20;100.00
29315;BME280;16320;53.954;9.506;2022-11-15T08:54:01;100859.22;;;8.19;100.00
29315;BME280;16320;53.954;9.506;2022-11-15T08:57:06;100858.38;;;8.18;100.00
29315;BME280;16320;53.954;9.506;2022-11-15T09:00:12;100853.00;;;8.21;100.00
29315;BME280;16320;53.954;9.506;2022-11-15T09:03:17;100858.00;;;8.28;100.00
29315;BME280;16320;53.954;9.506;2022-11-15T09:06:22;100851.72;;;8.32;100.00
29315;BME280;16320;53.954;9.506;2022-11-15T09:09:26;100857.75;;;8.34;100.00
29315;BME280;16320;53.954;9.506;2022-11-15T09:12:30;100854.28;;;8.33;100.00
29315;BME280;16320;53.954;9.506;2022-11-15T09:15:34;100857.66;;;8.37;100.00
29315;BME280;16320;53.954;9.506;2022-11-15T09:18:39;100853.25;;;8.37;100.00
29315;BME280;16320;53.954;9.506;2022-11-15T09:21:43;100850.44;;;8.42;100.00
29315;BME280;16320;53.954;9.506;2022-11-15T09:24:47;100863.53;;;8.42;100.00
29315;BME280;16320;53.954;9.506;2022-11-15T09:27:55;100865.19;;;8.45;100.00
29315;BME280;16320;53.954;9.506;2022-11-15T09:31:01;100864.34;;;8.44;100.00
29315;BME280;16320;53.954;9.506;2022-11-15T09:34:06;100869.59;;;8.44;100.00
29315;BME280;16320;53.954;9.506;2022-11-15T09:37:10;100871.19;;;8.48;100.00
29315;BME280;16320;53.954;9.506;2022-11-15T09:40:17;100880.91;;;8.45;100.00
29315;BME280;16320;53.954;9.506;2022-11-15T09:50:45;100880.78;;;8.48;100.00
29315;BME280;16320;53.954;9.506;2022-11-15T09:57:52;100865.13;;;8.46;100.00
29315;BME280;16320;53.954;9.506;2022-11-15T10:01:00;100863.13;;;8.53;100.00
29315;BME280;16320;53.954;9.506;2022-11-15T10:04:07;100869.94;;;8.57;100.00
29315;BME280;16320;53.954;9.506;2022-11-15T10:07:52;100858.41;;;8.61;100.00
29315;BME280;16320;53.954;9.506;2022-11-15T10:11:12;100852.16;;;8.65;100.00
29315;BME280;16320;53.954;9.506;2022-11-15T10:14:39;100856.13;;;8.74;100.00
29315;BME280;16320;53.954;9.506;2022-11-15T10:21:10;100844.69;;;8.76;100.00
29315;BME280;16320;53.954;9.506;2022-11-15T10:24:23;100838.06;;;8.88;100.00
29315;BME280;16320;53.954;9.506;2022-11-15T10:27:29;100840.44;;;8.94;100.00
29315;BME280;16320;53.954;9.506;2022-11-15T10:30:39;100846.19;;;9.03;100.00
29315;BME280;16320;53.954;9.506;2022-11-15T10:33:43;100842.66;;;9.04;100.00
29315;BME280;16320;53.954;9.506;2022-11-15T10:36:59;100843.44;;;9.06;100.00
29315;BME280;16320;53.954;9.506;2022-11-15T10:40:23;100825.25;;;9.03;100.00
29315;BME280;16320;53.954;9.506;2022-11-15T10:43:28;100820.00;;;9.03;100.00
29315;BME280;16320;53.954;9.506;2022-11-15T10:46:39;100816.59;;;9.01;100.00
29315;BME280;16320;53.954;9.506;2022-11-15T10:49:59;100814.88;;;9.00;100.00
29315;BME280;16320;53.954;9.506;2022-11-15T10:53:04;100812.13;;;9.03;100.00
29315;BME280;16320;53.954;9.506;2022-11-15T10:56:21;100823.47;;;9.03;100.00
29315;BME280;16320;53.954;9.506;2022-11-15T10:59:30;100810.16;;;9.08;100.00
29315;BME280;16320;53.954;9.506;2022-11-15T11:02:58;100813.03;;;9.02;100.00
29315;BME280;16320;53.954;9.506;2022-11-15T11:06:17;100811.22;;;9.04;100.00
29315;BME280;16320;53.954;9.506;2022-11-15T11:09:42;100800.63;;;9.07;100.00
29315;BME280;16320;53.954;9.506;2022-11-15T11:12:47;100798.06;;;9.05;100.00
29315;BME280;16320;53.954;9.506;2022-11-15T11:19:43;100803.25;;;9.07;100.00
29315;BME280;16320;53.954;9.506;2022-11-15T11:23:06;100795.38;;;9.07;100.00
29315;BME280;16320;53.954;9.506;2022-11-15T11:27:03;100791.88;;;9.06;100.00
29315;BME280;16320;53.954;9.506;2022-11-15T11:34:00;100793.53;;;9.09;100.00
29315;BME280;16320;53.954;9.506;2022-11-15T11:38:18;100792.41;;;9.14;100.00
29315;BME280;16320;53.954;9.506;2022-11-15T11:48:42;100794.56;;;9.25;100.00
29315;BME280;16320;53.954;9.506;2022-11-15T11:52:25;100789.03;;;9.31;100.00
29315;BME280;16320;53.954;9.506;2022-11-15T11:55:43;100786.91;;;9.40;100.00
29315;BME280;16320;53.954;9.506;2022-11-15T11:58:52;100781.66;;;9.40;100.00
29315;BME280;16320;53.954;9.506;2022-11-15T12:02:37;100762.72;;;9.52;100.00
29315;BME280;16320;53.954;9.506;2022-11-15T12:06:00;100761.63;;;9.58;100.00
29315;BME280;16320;53.954;9.506;2022-11-15T12:13:14;100741.19;;;9.64;100.00
29315;BME280;16320;53.954;9.506;2022-11-15T12:16:31;100735.72;;;9.69;100.00
29315;BME280;16320;53.954;9.506;2022-11-15T12:19:36;100736.28;;;9.76;100.00
29315;BME280;16320;53.954;9.506;2022-11-15T12:22:53;100734.44;;;9.78;100.00
29315;BME280;16320;53.954;9.506;2022-11-15T12:26:06;100739.38;;;9.84;100.00
29315;BME280;16320;53.954;9.506;2022-11-15T12:29:21;100737.53;;;9.86;100.00
29315;BME280;16320;53.954;9.506;2022-11-15T12:32:38;100738.47;;;9.85;100.00
29315;BME280;16320;53.954;9.506;2022-11-15T12:35:43;100734.75;;;9.89;100.00
29315;BME280;16320;53.954;9.506;2022-11-15T12:39:02;100721.50;;;9.92;100.00
29315;BME280;16320;53.954;9.506;2022-11-15T12:54:57;100719.66;;;10.12;100.00
29315;BME280;16320;53.954;9.506;2022-11-15T12:58:41;100716.88;;;10.15;100.00
29315;BME280;16320;53.954;9.506;2022-11-15T13:08:44;100703.78;;;10.32;100.00
29315;BME280;16320;53.954;9.506;2022-11-15T13:11:51;100693.00;;;10.38;100.00
29315;BME280;16320;53.954;9.506;2022-11-15T13:14:59;100697.06;;;10.44;100.00
29315;BME280;16320;53.954;9.506;2022-11-15T13:18:30;100693.44;;;10.47;100.00
29315;BME280;16320;53.954;9.506;2022-11-15T13:21:49;100689.25;;;10.42;100.00
29315;BME280;16320;53.954;9.506;2022-11-15T13:28:53;100678.28;;;10.52;100.00
29315;BME280;16320;53.954;9.506;2022-11-15T13:32:00;100669.66;;;10.50;100.00
29315;BME280;16320;53.954;9.506;2022-11-15T13:35:07;100673.34;;;10.46;100.00
29315;BME280;16320;53.954;9.506;2022-11-15T13:38:34;100672.50;;;10.45;100.00
29315;BME280;16320;53.954;9.506;2022-11-15T13:41:51;100666.47;;;10.43;100.00
29315;BME280;16320;53.954;9.506;2022-11-15T13:45:02;100666.47;;;10.43;100.00
29315;BME280;16320;53.954;9.506;2022-11-15T13:48:08;100655.34;;;10.38;100.00
29315;BME280;16320;53.954;9.506;2022-11-15T13:51:43;100659.94;;;10.34;100.00
29315;BME280;16320;53.954;9.506;2022-11-15T13:58:43;100665.94;;;10.36;100.00
29315;BME280;16320;53.954;9.506;2022-11-15T14:01:54;100664.72;;;10.43;100.00
29315;BME280;16320;53.954;9.506;2022-11-15T14:05:22;100673.50;;;10.42;100.00
29315;BME280;16320;53.954;9.506;2022-11-15T14:12:54;100666.22;;;10.48;100.00
29315;BME280;16320;53.954;9.506;2022-11-15T14:16:20;100654.91;;;10.47;100.00
29315;BME280;16320;53.954;9.506;2022-11-15T14:20:18;100653.25;;;10.44;100.00
29315;BME280;16320;53.954;9.506;2022-11-15T14:42:09;100640.94;;;10.12;100.00
29315;BME280;16320;53.954;9.506;2022-11-15T14:46:21;100655.44;;;10.01;100.00
29315;BME280;16320;53.954;9.506;2022-11-15T14:50:24;100654.13;;;9.93;100.00
29315;BME280;16320;53.954;9.506;2022-11-15T14:53:40;100651.41;;;9.94;100.00
29315;BME280;16320;53.954;9.506;2022-11-15T14:56:49;100653.44;;;9.89;100.00
29315;BME280;16320;53.954;9.506;2022-11-15T14:59:55;100648.47;;;9.83;100.00
29315;BME280;16320;53.954;9.506;2022-11-15T15:03:00;100652.88;;;9.82;100.00
29315;BME280;16320;53.954;9.506;2022-11-15T15:06:04;100669.72;;;9.78;100.00
29315;BME280;16320;53.954;9.506;2022-11-15T15:09:27;100664.56;;;9.77;100.00
29315;BME280;16320;53.954;9.506;2022-11-15T15:12:31;100678.22;;;9.83;100.00
29315;BME280;16320;53.954;9.506;2022-11-15T15:15:52;100691.25;;;9.85;100.00
29315;BME280;16320;53.954;9.506;2022-11-15T15:18:57;100690.31;;;9.86;100.00
29315;BME280;16320;53.954;9.506;2022-11-15T15:22:02;100697.25;;;9.87;100.00
29315;BME280;16320;53.954;9.506;2022-11-15T15:25:27;100697.13;;;9.90;100.00
29315;BME280;16320;53.954;9.506;2022-11-15T15:28:35;100694.41;;;9.92;100.00
29315;BME280;16320;53.954;9.506;2022-11-15T15:31:45;100693.41;;;9.94;100.00
29315;BME280;16320;53.954;9.506;2022-11-15T15:34:49;100688.81;;;9.99;100.00
29315;BME280;16320;53.954;9.506;2022-11-15T15:37:54;100682.47;;;10.03;100.00
29315;BME280;16320;53.954;9.506;2022-11-15T15:40:58;100670.25;;;10.02;100.00
29315;BME280;16320;53.954;9.506;2022-11-15T15:44:06;100669.63;;;9.97;100.00
29315;BME280;16320;53.954;9.506;2022-11-15T15:47:21;100665.34;;;9.96;100.00
29315;BME280;16320;53.954;9.506;2022-11-15T15:50:36;100660.25;;;9.93;100.00
29315;BME280;16320;53.954;9.506;2022-11-15T15:53:41;100656.84;;;9.91;100.00
29315;BME280;16320;53.954;9.506;2022-11-15T15:56:45;100638.00;;;9.83;100.00
29315;BME280;16320;53.954;9.506;2022-11-15T15:59:53;100646.03;;;9.80;100.00
29315;BME280;16320;53.954;9.506;2022-11-15T16:02:58;100645.25;;;9.78;100.00
29315;BME280;16320;53.954;9.506;2022-11-15T16:06:03;100638.47;;;9.74;100.00
29315;BME280;16320;53.954;9.506;2022-11-15T16:09:16;100632.81;;;9.64;100.00
29315;BME280;16320;53.954;9.506;2022-11-15T16:12:22;100626.16;;;9.57;100.00
29315;BME280;16320;53.954;9.506;2022-11-15T16:15:30;100630.44;;;9.59;100.00
29315;BME280;16320;53.954;9.506;2022-11-15T16:18:35;100627.19;;;9.54;100.00
29315;BME280;16320;53.954;9.506;2022-11-15T16:21:39;100624.84;;;9.48;100.00
29315;BME280;16320;53.954;9.506;2022-11-15T16:24:44;100624.94;;;9.46;100.00
29315;BME280;16320;53.954;9.506;2022-11-15T16:27:48;100612.81;;;9.44;100.00
29315;BME280;16320;53.954;9.506;2022-11-15T16:31:05;100609.34;;;9.43;100.00
29315;BME280;16320;53.954;9.506;2022-11-15T16:34:10;100613.75;;;9.43;100.00
29315;BME280;16320;53.954;9.506;2022-11-15T16:37:24;100615.59;;;9.41;100.00
29315;BME280;16320;53.954;9.506;2022-11-15T16:40:32;100612.19;;;9.39;100.00
29315;BME280;16320;53.954;9.506;2022-11-15T16:43:37;100604.25;;;9.40;100.00
29315;BME280;16320;53.954;9.506;2022-11-15T16:46:42;100605.13;;;9.41;100.00
29315;BME280;16320;53.954;9.506;2022-11-15T16:49:47;100600.03;;;9.38;100.00
29315;BME280;16320;53.954;9.506;2022-11-15T16:52:56;100598.31;;;9.37;100.00
29315;BME280;16320;53.954;9.506;2022-11-15T16:56:01;100594.13;;;9.32;100.00
29315;BME280;16320;53.954;9.506;2022-11-15T16:59:08;100595.16;;;9.30;100.00
29315;BME280;16320;53.954;9.506;2022-11-15T17:02:13;100604.94;;;9.26;100.00
29315;BME280;16320;53.954;9.506;2022-11-15T17:05:21;100611.09;;;9.25;100.00
29315;BME280;16320;53.954;9.506;2022-11-15T17:08:26;100605.09;;;9.23;100.00
29315;BME280;16320;53.954;9.506;2022-11-15T17:11:32;100602.59;;;9.20;100.00
29315;BME280;16320;53.954;9.506;2022-11-15T17:14:39;100599.97;;;9.20;100.00
29315;BME280;16320;53.954;9.506;2022-11-15T17:17:44;100601.97;;;9.15;100.00
29315;BME280;16320;53.954;9.506;2022-11-15T17:20:48;100597.66;;;9.14;100.00
29315;BME280;16320;53.954;9.506;2022-11-15T17:23:53;100595.88;;;9.14;100.00
29315;BME280;16320;53.954;9.506;2022-11-15T17:26:58;100590.69;;;9.13;100.00
29315;BME280;16320;53.954;9.506;2022-11-15T17:30:04;100590.00;;;9.09;100.00
29315;BME280;16320;53.954;9.506;2022-11-15T17:33:09;100584.06;;;9.06;100.00
29315;BME280;16320;53.954;9.506;2022-11-15T17:36:13;100586.00;;;9.02;100.00
29315;BME280;16320;53.954;9.506;2022-11-15T17:39:17;100581.59;;;9.03;100.00
29315;BME280;16320;53.954;9.506;2022-11-15T17:42:23;100595.59;;;9.02;100.00
29315;BME280;16320;53.954;9.506;2022-11-15T17:45:27;100580.34;;;8.92;100.00
29315;BME280;16320;53.954;9.506;2022-11-15T17:48:32;100585.66;;;8.91;100.00
29315;BME280;16320;53.954;9.506;2022-11-15T17:51:37;100582.41;;;8.86;100.00
29315;BME280;16320;53.954;9.506;2022-11-15T17:54:41;100578.84;;;8.87;100.00
29315;BME280;16320;53.954;9.506;2022-11-15T17:57:45;100583.25;;;8.86;100.00
29315;BME280;16320;53.954;9.506;2022-11-15T18:00:49;100574.47;;;8.87;100.00
29315;BME280;16320;53.954;9.506;2022-11-15T18:03:56;100574.34;;;8.90;100.00
29315;BME280;16320;53.954;9.506;2022-11-15T18:07:01;100579.56;;;8.90;100.00
29315;BME280;16320;53.954;9.506;2022-11-15T18:10:06;100574.34;;;8.90;100.00
29315;BME280;16320;53.954;9.506;2022-11-15T18:13:11;100572.63;;;8.89;100.00
29315;BME280;16320;53.954;9.506;2022-11-15T18:16:19;100570.91;;;8.88;100.00
29315;BME280;16320;53.954;9.506;2022-11-15T18:19:24;100573.47;;;8.90;100.00
29315;BME280;16320;53.954;9.506;2022-11-15T18:22:28;100565.66;;;8.88;100.00
29315;BME280;16320;53.954;9.506;2022-11-15T18:25:33;100572.75;;;8.86;100.00